sensor_id;sensor_type;location;lat;lon;timestamp;temperature;humidity
45137;DHT22;30894;51.740;19.498;2023-02-11T00:01:08;2.70;99.90
45137;DHT22;30894;51.740;19.498;2023-02-11T00:03:35;2.70;99.90
45137;DHT22;30894;51.740;19.498;2023-02-11T00:06:05;2.60;99.90
45137;DHT22;30894;51.740;19.498;2023-02-11T00:08:35;2.70;99.90
45137;DHT22;30894;51.740;19.498;2023-02-11T00:11:03;2.70;99.90
45137;DHT22;30894;51.740;19.498;2023-02-11T00:13:29;2.70;99.90
45137;DHT22;30894;51.740;19.498;2023-02-11T00:15:56;2.60;99.90
45137;DHT22;30894;51.740;19.498;2023-02-11T00:18:22;2.70;99.90
45137;DHT22;30894;51.740;19.498;2023-02-11T00:20:50;2.70;99.90
45137;DHT22;30894;51.740;19.498;2023-02-11T00:23:16;2.60;99.90
45137;DHT22;30894;51.740;19.498;2023-02-11T00:25:43;2.70;99.90
45137;DHT22;30894;51.740;19.498;2023-02-11T00:28:10;2.60;99.90
45137;DHT22;30894;51.740;19.498;2023-02-11T00:30:38;2.60;99.90
45137;DHT22;30894;51.740;19.498;2023-02-11T00:33:04;2.60;99.90
45137;DHT22;30894;51.740;19.498;2023-02-11T00:35:31;2.60;99.90
45137;DHT22;30894;51.740;19.498;2023-02-11T00:37:57;2.60;99.90
45137;DHT22;30894;51.740;19.498;2023-02-11T00:40:23;2.50;99.90
45137;DHT22;30894;51.740;19.498;2023-02-11T00:42:49;2.60;99.90
45137;DHT22;30894;51.740;19.498;2023-02-11T00:45:16;2.60;99.90
45137;DHT22;30894;51.740;19.498;2023-02-11T00:47:42;2.60;99.90
45137;DHT22;30894;51.740;19.498;2023-02-11T00:50:08;2.60;99.90
45137;DHT22;30894;51.740;19.498;2023-02-11T00:52:34;2.60;99.90
45137;DHT22;30894;51.740;19.498;2023-02-11T00:55:01;2.60;99.90
45137;DHT22;30894;51.740;19.498;2023-02-11T00:57:27;2.60;99.90
45137;DHT22;30894;51.740;19.498;2023-02-11T00:59:53;2.70;99.90
45137;DHT22;30894;51.740;19.498;2023-02-11T01:02:19;2.60;99.90
45137;DHT22;30894;51.740;19.498;2023-02-11T01:04:45;2.60;99.90
45137;DHT22;30894;51.740;19.498;2023-02-11T01:07:11;2.60;99.90
45137;DHT22;30894;51.740;19.498;2023-02-11T01:09:38;2.60;99.90
45137;DHT22;30894;51.740;19.498;2023-02-11T01:12:04;2.60;99.90
45137;DHT22;30894;51.740;19.498;2023-02-11T01:14:31;2.60;99.90
45137;DHT22;30894;51.740;19.498;2023-02-11T01:16:57;2.70;99.90
45137;DHT22;30894;51.740;19.498;2023-02-11T01:19:23;2.50;99.90
45137;DHT22;30894;51.740;19.498;2023-02-11T01:21:49;2.60;99.90
45137;DHT22;30894;51.740;19.498;2023-02-11T01:24:15;2.50;99.90
45137;DHT22;30894;51.740;19.498;2023-02-11T01:26:41;2.50;99.90
45137;DHT22;30894;51.740;19.498;2023-02-11T01:29:08;2.50;99.90
45137;DHT22;30894;51.740;19.498;2023-02-11T01:31:34;2.50;99.90
45137;DHT22;30894;51.740;19.498;2023-02-11T01:34:00;2.50;99.90
45137;DHT22;30894;51.740;19.498;2023-02-11T01:36:26;2.40;99.90
45137;DHT22;30894;51.740;19.498;2023-02-11T01:38:53;2.40;99.90
45137;DHT22;30894;51.740;19.498;2023-02-11T01:41:19;2.40;99.90
45137;DHT22;30894;51.740;19.498;2023-02-11T01:43:48;2.30;99.90
45137;DHT22;30894;51.740;19.498;2023-02-11T01:46:35;2.30;99.90
45137;DHT22;30894;51.740;19.498;2023-02-11T01:49:09;2.40;99.90
45137;DHT22;30894;51.740;19.498;2023-02-11T01:51:41;2.30;99.90
45137;DHT22;30894;51.740;19.498;2023-02-11T01:54:15;2.30;99.90
45137;DHT22;30894;51.740;19.498;2023-02-11T01:57:03;2.30;99.90
45137;DHT22;30894;51.740;19.498;2023-02-11T02:08:46;2.30;99.90
45137;DHT22;30894;51.740;19.498;2023-02-11T02:11:18;2.30;99.90
45137;DHT22;30894;51.740;19.498;2023-02-11T02:13:44;2.30;99.90
45137;DHT22;30894;51.740;19.498;2023-02-11T02:16:13;2.30;99.90
45137;DHT22;30894;51.740;19.498;2023-02-11T02:25:35;2.30;99.90
45137;DHT22;30894;51.740;19.498;2023-02-11T02:29:06;2.30;99.90
45137;DHT22;30894;51.740;19.498;2023-02-11T02:32:28;2.30;99.90
45137;DHT22;30894;51.740;19.498;2023-02-11T02:35:51;2.40;99.90
45137;DHT22;30894;51.740;19.498;2023-02-11T02:38:30;2.30;99.90
45137;DHT22;30894;51.740;19.498;2023-02-11T02:41:07;2.30;99.90
45137;DHT22;30894;51.740;19.498;2023-02-11T02:43:38;2.40;99.90
45137;DHT22;30894;51.740;19.498;2023-02-11T02:46:13;2.30;99.90
45137;DHT22;30894;51.740;19.498;2023-02-11T02:48:39;2.30;99.90
45137;DHT22;30894;51.740;19.498;2023-02-11T02:53:57;2.30;99.90
45137;DHT22;30894;51.740;19.498;2023-02-11T02:56:55;2.40;99.90
45137;DHT22;30894;51.740;19.498;2023-02-11T03:08:50;2.40;99.90
45137;DHT22;30894;51.740;19.498;2023-02-11T03:11:21;2.40;99.90
45137;DHT22;30894;51.740;19.498;2023-02-11T03:13:48;2.40;99.90
45137;DHT22;30894;51.740;19.498;2023-02-11T03:16:34;2.40;99.90
45137;DHT22;30894;51.740;19.498;2023-02-11T03:19:18;2.40;99.90
45137;DHT22;30894;51.740;19.498;2023-02-11T03:21:47;2.40;99.90
45137;DHT22;30894;51.740;19.498;2023-02-11T03:24:32;2.40;99.90
45137;DHT22;30894;51.740;19.498;2023-02-11T03:27:09;2.30;99.90
45137;DHT22;30894;51.740;19.498;2023-02-11T03:29:53;2.30;99.90
45137;DHT22;30894;51.740;19.498;2023-02-11T03:32:31;2.40;99.90
45137;DHT22;30894;51.740;19.498;2023-02-11T03:35:08;2.40;99.90
45137;DHT22;30894;51.740;19.498;2023-02-11T03:37:40;2.40;99.90
45137;DHT22;30894;51.740;19.498;2023-02-11T03:40:22;2.40;99.90
45137;DHT22;30894;51.740;19.498;2023-02-11T03:43:02;2.40;99.90
45137;DHT22;30894;51.740;19.498;2023-02-11T03:45:35;2.40;99.90
45137;DHT22;30894;51.740;19.498;2023-02-11T03:48:13;2.40;99.90
45137;DHT22;30894;51.740;19.498;2023-02-11T03:50:41;2.30;99.90
45137;DHT22;30894;51.740;19.498;2023-02-11T03:53:09;2.30;99.90
45137;DHT22;30894;51.740;19.498;2023-02-11T03:55:38;2.30;99.90
45137;DHT22;30894;51.740;19.498;2023-02-11T03:58:06;2.30;99.90
45137;DHT22;30894;51.740;19.498;2023-02-11T04:00:36;2.30;99.90
45137;DHT22;30894;51.740;19.498;2023-02-11T04:03:04;2.20;99.90
45137;DHT22;30894;51.740;19.498;2023-02-11T04:05:32;2.20;99.90
45137;DHT22;30894;51.740;19.498;2023-02-11T04:07:58;2.20;99.90
45137;DHT22;30894;51.740;19.498;2023-02-11T04:10:25;2.10;99.90
45137;DHT22;30894;51.740;19.498;2023-02-11T04:12:51;2.10;99.90
45137;DHT22;30894;51.740;19.498;2023-02-11T04:15:17;2.20;99.90
45137;DHT22;30894;51.740;19.498;2023-02-11T04:17:45;2.10;99.90
45137;DHT22;30894;51.740;19.498;2023-02-11T04:20:11;2.10;99.90
45137;DHT22;30894;51.740;19.498;2023-02-11T04:22:37;2.00;99.90
45137;DHT22;30894;51.740;19.498;2023-02-11T04:25:05;2.00;99.90
45137;DHT22;30894;51.740;19.498;2023-02-11T04:27:31;1.90;99.90
45137;DHT22;30894;51.740;19.498;2023-02-11T04:29:58;1.90;99.90
45137;DHT22;30894;51.740;19.498;2023-02-11T04:32:24;1.80;99.90
45137;DHT22;30894;51.740;19.498;2023-02-11T04:34:50;1.80;99.90
45137;DHT22;30894;51.740;19.498;2023-02-11T04:37:17;1.70;99.90
45137;DHT22;30894;51.740;19.498;2023-02-11T04:39:43;1.70;99.90
45137;DHT22;30894;51.740;19.498;2023-02-11T04:42:09;1.70;99.90
45137;DHT22;30894;51.740;19.498;2023-02-11T04:44:36;1.70;99.90
45137;DHT22;30894;51.740;19.498;2023-02-11T04:47:02;1.80;99.90
45137;DHT22;30894;51.740;19.498;2023-02-11T04:49:29;1.80;99.90
45137;DHT22;30894;51.740;19.498;2023-02-11T04:51:55;1.80;99.90
45137;DHT22;30894;51.740;19.498;2023-02-11T04:54:21;1.90;99.90
45137;DHT22;30894;51.740;19.498;2023-02-11T04:56:47;1.80;99.90
45137;DHT22;30894;51.740;19.498;2023-02-11T04:59:14;1.90;99.90
45137;DHT22;30894;51.740;19.498;2023-02-11T05:01:41;1.80;99.90
45137;DHT22;30894;51.740;19.498;2023-02-11T05:04:07;1.70;99.90
45137;DHT22;30894;51.740;19.498;2023-02-11T05:06:33;1.80;99.90
45137;DHT22;30894;51.740;19.498;2023-02-11T05:08:59;1.90;99.90
45137;DHT22;30894;51.740;19.498;2023-02-11T05:11:25;1.90;99.90
45137;DHT22;30894;51.740;19.498;2023-02-11T05:13:52;1.90;99.90
45137;DHT22;30894;51.740;19.498;2023-02-11T05:16:18;1.90;99.90
45137;DHT22;30894;51.740;19.498;2023-02-11T05:18:45;1.80;99.90
45137;DHT22;30894;51.740;19.498;2023-02-11T05:21:15;1.80;99.90
45137;DHT22;30894;51.740;19.498;2023-02-11T05:23:43;1.80;99.90
45137;DHT22;30894;51.740;19.498;2023-02-11T05:26:10;1.80;99.90
45137;DHT22;30894;51.740;19.498;2023-02-11T05:28:39;1.80;99.90
45137;DHT22;30894;51.740;19.498;2023-02-11T05:31:07;1.80;99.90
45137;DHT22;30894;51.740;19.498;2023-02-11T05:33:33;1.80;99.90
45137;DHT22;30894;51.740;19.498;2023-02-11T05:36:02;1.90;99.90
45137;DHT22;30894;51.740;19.498;2023-02-11T05:38:31;1.90;99.90
45137;DHT22;30894;51.740;19.498;2023-02-11T05:41:01;2.00;99.90
45137;DHT22;30894;51.740;19.498;2023-02-11T05:43:28;2.00;99.90
45137;DHT22;30894;51.740;19.498;2023-02-11T05:45:54;2.00;99.90
45137;DHT22;30894;51.740;19.498;2023-02-11T05:48:21;1.90;99.90
45137;DHT22;30894;51.740;19.498;2023-02-11T05:50:48;1.90;99.90
45137;DHT22;30894;51.740;19.498;2023-02-11T05:53:14;1.80;99.90
45137;DHT22;30894;51.740;19.498;2023-02-11T05:55:41;1.80;99.90
45137;DHT22;30894;51.740;19.498;2023-02-11T05:58:07;1.80;99.90
45137;DHT22;30894;51.740;19.498;2023-02-11T06:00:34;1.80;99.90
45137;DHT22;30894;51.740;19.498;2023-02-11T06:03:01;1.90;99.90
45137;DHT22;30894;51.740;19.498;2023-02-11T06:05:29;1.90;99.90
45137;DHT22;30894;51.740;19.498;2023-02-11T06:07:56;2.00;99.90
45137;DHT22;30894;51.740;19.498;2023-02-11T06:10:23;2.00;99.90
45137;DHT22;30894;51.740;19.498;2023-02-11T06:12:49;2.00;99.90
45137;DHT22;30894;51.740;19.498;2023-02-11T06:15:16;2.00;99.90
45137;DHT22;30894;51.740;19.498;2023-02-11T06:17:43;2.10;99.90
45137;DHT22;30894;51.740;19.498;2023-02-11T06:20:09;2.10;99.90
45137;DHT22;30894;51.740;19.498;2023-02-11T06:22:37;2.20;99.90
45137;DHT22;30894;51.740;19.498;2023-02-11T06:25:03;2.20;99.90
45137;DHT22;30894;51.740;19.498;2023-02-11T06:27:32;2.20;99.90
45137;DHT22;30894;51.740;19.498;2023-02-11T06:29:59;2.30;99.90
45137;DHT22;30894;51.740;19.498;2023-02-11T06:32:26;2.30;99.90
45137;DHT22;30894;51.740;19.498;2023-02-11T06:34:53;2.40;99.90
45137;DHT22;30894;51.740;19.498;2023-02-11T06:37:20;2.40;99.90
45137;DHT22;30894;51.740;19.498;2023-02-11T06:39:46;2.50;99.90
45137;DHT22;30894;51.740;19.498;2023-02-11T06:42:13;2.50;99.90
45137;DHT22;30894;51.740;19.498;2023-02-11T06:44:39;2.60;99.90
45137;DHT22;30894;51.740;19.498;2023-02-11T06:47:06;2.60;99.90
45137;DHT22;30894;51.740;19.498;2023-02-11T06:49:33;2.70;99.90
45137;DHT22;30894;51.740;19.498;2023-02-11T06:51:59;2.70;99.90
45137;DHT22;30894;51.740;19.498;2023-02-11T06:54:26;2.70;99.90
45137;DHT22;30894;51.740;19.498;2023-02-11T06:56:52;2.70;99.90
45137;DHT22;30894;51.740;19.498;2023-02-11T06:59:19;2.80;99.90
45137;DHT22;30894;51.740;19.498;2023-02-11T07:01:46;2.80;99.90
45137;DHT22;30894;51.740;19.498;2023-02-11T07:04:12;2.80;99.90
45137;DHT22;30894;51.740;19.498;2023-02-11T07:06:41;2.90;99.90
45137;DHT22;30894;51.740;19.498;2023-02-11T07:09:08;2.90;99.90
45137;DHT22;30894;51.740;19.498;2023-02-11T07:11:35;2.90;99.90
45137;DHT22;30894;51.740;19.498;2023-02-11T07:14:06;2.90;99.90
45137;DHT22;30894;51.740;19.498;2023-02-11T07:16:34;2.90;99.90
45137;DHT22;30894;51.740;19.498;2023-02-11T07:19:00;2.90;99.90
45137;DHT22;30894;51.740;19.498;2023-02-11T07:21:27;2.90;99.90
45137;DHT22;30894;51.740;19.498;2023-02-11T07:23:54;3.00;99.90
45137;DHT22;30894;51.740;19.498;2023-02-11T07:26:22;3.10;99.90
45137;DHT22;30894;51.740;19.498;2023-02-11T07:28:51;3.10;99.90
45137;DHT22;30894;51.740;19.498;2023-02-11T07:31:23;3.20;99.90
45137;DHT22;30894;51.740;19.498;2023-02-11T07:33:53;3.20;99.90
45137;DHT22;30894;51.740;19.498;2023-02-11T07:36:21;3.30;99.90
45137;DHT22;30894;51.740;19.498;2023-02-11T07:38:47;3.30;99.90
45137;DHT22;30894;51.740;19.498;2023-02-11T07:41:17;3.30;99.90
45137;DHT22;30894;51.740;19.498;2023-02-11T07:43:45;3.30;99.90
45137;DHT22;30894;51.740;19.498;2023-02-11T07:46:16;3.30;99.90
45137;DHT22;30894;51.740;19.498;2023-02-11T07:48:45;3.30;99.90
45137;DHT22;30894;51.740;19.498;2023-02-11T07:51:18;3.30;99.90
45137;DHT22;30894;51.740;19.498;2023-02-11T07:53:46;3.30;99.90
45137;DHT22;30894;51.740;19.498;2023-02-11T07:56:14;3.30;99.90
45137;DHT22;30894;51.740;19.498;2023-02-11T07:58:41;3.20;99.90
45137;DHT22;30894;51.740;19.498;2023-02-11T08:01:13;3.20;99.90
45137;DHT22;30894;51.740;19.498;2023-02-11T08:03:42;3.10;99.90
45137;DHT22;30894;51.740;19.498;2023-02-11T08:06:11;3.10;99.90
45137;DHT22;30894;51.740;19.498;2023-02-11T08:08:40;3.10;99.90
45137;DHT22;30894;51.740;19.498;2023-02-11T08:11:27;3.00;99.90
45137;DHT22;30894;51.740;19.498;2023-02-11T08:13:54;3.00;99.90
45137;DHT22;30894;51.740;19.498;2023-02-11T08:16:26;2.90;99.90
45137;DHT22;30894;51.740;19.498;2023-02-11T08:18:59;3.00;99.90
45137;DHT22;30894;51.740;19.498;2023-02-11T08:21:28;2.90;99.90
45137;DHT22;30894;51.740;19.498;2023-02-11T08:23:55;2.80;99.90
45137;DHT22;30894;51.740;19.498;2023-02-11T08:26:24;2.80;99.90
45137;DHT22;30894;51.740;19.498;2023-02-11T08:28:54;2.70;99.90
45137;DHT22;30894;51.740;19.498;2023-02-11T08:31:34;2.70;99.90
45137;DHT22;30894;51.740;19.498;2023-02-11T08:34:02;2.80;99.90
45137;DHT22;30894;51.740;19.498;2023-02-11T08:36:32;2.80;99.90
45137;DHT22;30894;51.740;19.498;2023-02-11T08:39:02;2.90;99.90
45137;DHT22;30894;51.740;19.498;2023-02-11T08:41:34;2.90;99.90
45137;DHT22;30894;51.740;19.498;2023-02-11T08:44:00;2.90;99.90
45137;DHT22;30894;51.740;19.498;2023-02-11T08:46:26;2.80;99.90
45137;DHT22;30894;51.740;19.498;2023-02-11T08:48:52;2.90;99.90
45137;DHT22;30894;51.740;19.498;2023-02-11T08:51:22;3.00;99.90
45137;DHT22;30894;51.740;19.498;2023-02-11T08:53:53;2.90;99.90
45137;DHT22;30894;51.740;19.498;2023-02-11T08:56:21;2.90;99.90
45137;DHT22;30894;51.740;19.498;2023-02-11T08:58:48;3.00;99.90
45137;DHT22;30894;51.740;19.498;2023-02-11T09:01:21;2.90;99.90
45137;DHT22;30894;51.740;19.498;2023-02-11T09:03:49;2.90;99.90
45137;DHT22;30894;51.740;19.498;2023-02-11T09:06:16;3.00;99.90
45137;DHT22;30894;51.740;19.498;2023-02-11T09:08:46;3.00;99.90
45137;DHT22;30894;51.740;19.498;2023-02-11T09:11:19;3.00;99.90
45137;DHT22;30894;51.740;19.498;2023-02-11T09:13:47;3.00;99.90
45137;DHT22;30894;51.740;19.498;2023-02-11T09:16:20;3.10;99.90
45137;DHT22;30894;51.740;19.498;2023-02-11T09:18:49;3.00;99.90
45137;DHT22;30894;51.740;19.498;2023-02-11T09:21:16;3.00;99.90
45137;DHT22;30894;51.740;19.498;2023-02-11T09:23:43;3.10;99.90
45137;DHT22;30894;51.740;19.498;2023-02-11T09:26:14;3.10;99.90
45137;DHT22;30894;51.740;19.498;2023-02-11T09:28:47;3.10;99.90
45137;DHT22;30894;51.740;19.498;2023-02-11T09:31:16;3.10;99.90
45137;DHT22;30894;51.740;19.498;2023-02-11T09:33:46;3.00;99.90
45137;DHT22;30894;51.740;19.498;2023-02-11T09:36:20;3.10;99.90
45137;DHT22;30894;51.740;19.498;2023-02-11T09:38:48;3.10;99.90
45137;DHT22;30894;51.740;19.498;2023-02-11T09:44:28;3.20;99.90
45137;DHT22;30894;51.740;19.498;2023-02-11T09:47:01;3.20;99.90
45137;DHT22;30894;51.740;19.498;2023-02-11T09:49:39;3.30;99.90
45137;DHT22;30894;51.740;19.498;2023-02-11T09:52:17;3.30;99.90
45137;DHT22;30894;51.740;19.498;2023-02-11T09:54:58;3.30;99.90
45137;DHT22;30894;51.740;19.498;2023-02-11T09:57:31;3.30;99.90
45137;DHT22;30894;51.740;19.498;2023-02-11T10:00:00;3.20;99.90
45137;DHT22;30894;51.740;19.498;2023-02-11T10:22:58;3.10;99.90
45137;DHT22;30894;51.740;19.498;2023-02-11T10:25:38;3.00;99.90
45137;DHT22;30894;51.740;19.498;2023-02-11T10:28:18;3.00;99.90
45137;DHT22;30894;51.740;19.498;2023-02-11T10:36:38;3.10;99.90
45137;DHT22;30894;51.740;19.498;2023-02-11T10:39:18;3.10;99.90
45137;DHT22;30894;51.740;19.498;2023-02-11T10:41:52;3.10;99.90
45137;DHT22;30894;51.740;19.498;2023-02-11T10:44:33;3.10;99.90
45137;DHT22;30894;51.740;19.498;2023-02-11T10:47:15;3.10;99.90
45137;DHT22;30894;51.740;19.498;2023-02-11T10:49:45;3.10;99.90
45137;DHT22;30894;51.740;19.498;2023-02-11T10:52:26;3.10;99.90
45137;DHT22;30894;51.740;19.498;2023-02-11T10:57:51;3.20;99.90
45137;DHT22;30894;51.740;19.498;2023-02-11T11:00:39;3.20;99.90
45137;DHT22;30894;51.740;19.498;2023-02-11T11:03:19;3.20;99.90
45137;DHT22;30894;51.740;19.498;2023-02-11T11:05:54;3.10;99.90
45137;DHT22;30894;51.740;19.498;2023-02-11T11:16:35;3.10;99.90
45137;DHT22;30894;51.740;19.498;2023-02-11T11:21:46;3.10;99.90
45137;DHT22;30894;51.740;19.498;2023-02-11T11:24:20;3.20;99.90
45137;DHT22;30894;51.740;19.498;2023-02-11T11:26:51;3.20;99.90
45137;DHT22;30894;51.740;19.498;2023-02-11T11:29:47;3.30;99.90
45137;DHT22;30894;51.740;19.498;2023-02-11T11:34:54;3.30;99.90
45137;DHT22;30894;51.740;19.498;2023-02-11T11:42:42;3.30;99.90
45137;DHT22;30894;51.740;19.498;2023-02-11T11:50:42;3.40;99.90
45137;DHT22;30894;51.740;19.498;2023-02-11T11:56:10;3.50;99.90
45137;DHT22;30894;51.740;19.498;2023-02-11T11:58:39;3.50;99.90
45137;DHT22;30894;51.740;19.498;2023-02-11T12:07:42;3.60;99.90
45137;DHT22;30894;51.740;19.498;2023-02-11T12:27:06;3.70;99.90
45137;DHT22;30894;51.740;19.498;2023-02-11T12:30:02;3.70;99.90
45137;DHT22;30894;51.740;19.498;2023-02-11T12:33:25;3.70;99.90
45137;DHT22;30894;51.740;19.498;2023-02-11T12:36:11;3.70;99.90
45137;DHT22;30894;51.740;19.498;2023-02-11T12:39:01;3.70;99.90
45137;DHT22;30894;51.740;19.498;2023-02-11T12:45:26;3.70;99.90
45137;DHT22;30894;51.740;19.498;2023-02-11T12:59:15;3.70;99.90
45137;DHT22;30894;51.740;19.498;2023-02-11T13:01:49;3.70;99.90
45137;DHT22;30894;51.740;19.498;2023-02-11T13:04:28;3.70;99.90
45137;DHT22;30894;51.740;19.498;2023-02-11T13:07:13;3.70;99.90
45137;DHT22;30894;51.740;19.498;2023-02-11T13:09:47;3.70;99.90
45137;DHT22;30894;51.740;19.498;2023-02-11T13:12:18;3.80;99.90
45137;DHT22;30894;51.740;19.498;2023-02-11T13:15:06;3.80;99.90
45137;DHT22;30894;51.740;19.498;2023-02-11T13:17:42;3.80;99.90
45137;DHT22;30894;51.740;19.498;2023-02-11T13:26:22;3.80;99.90
45137;DHT22;30894;51.740;19.498;2023-02-11T13:32:06;3.90;99.90
45137;DHT22;30894;51.740;19.498;2023-02-11T13:34:55;3.90;99.90
45137;DHT22;30894;51.740;19.498;2023-02-11T13:37:33;3.90;99.90
45137;DHT22;30894;51.740;19.498;2023-02-11T13:42:32;4.00;99.90
45137;DHT22;30894;51.740;19.498;2023-02-11T13:45:00;4.00;99.90
45137;DHT22;30894;51.740;19.498;2023-02-11T13:47:28;4.10;99.90
45137;DHT22;30894;51.740;19.498;2023-02-11T13:49:57;4.10;99.90
45137;DHT22;30894;51.740;19.498;2023-02-11T13:52:36;4.10;99.90
45137;DHT22;30894;51.740;19.498;2023-02-11T13:55:20;4.20;99.90
45137;DHT22;30894;51.740;19.498;2023-02-11T14:06:28;4.30;99.90
45137;DHT22;30894;51.740;19.498;2023-02-11T14:09:35;4.40;99.90
45137;DHT22;30894;51.740;19.498;2023-02-11T14:12:23;4.40;99.90
45137;DHT22;30894;51.740;19.498;2023-02-11T14:15:18;4.40;99.90
45137;DHT22;30894;51.740;19.498;2023-02-11T14:17:46;4.50;99.90
45137;DHT22;30894;51.740;19.498;2023-02-11T14:20:38;4.50;99.90
45137;DHT22;30894;51.740;19.498;2023-02-11T14:23:20;4.50;99.90
45137;DHT22;30894;51.740;19.498;2023-02-11T14:26:38;4.60;99.90
45137;DHT22;30894;51.740;19.498;2023-02-11T14:34:59;4.60;99.90
45137;DHT22;30894;51.740;19.498;2023-02-11T14:40:39;4.60;99.90
45137;DHT22;30894;51.740;19.498;2023-02-11T14:43:15;4.70;99.90
45137;DHT22;30894;51.740;19.498;2023-02-11T14:45:49;4.70;99.90
45137;DHT22;30894;51.740;19.498;2023-02-11T14:48:18;4.60;99.90
45137;DHT22;30894;51.740;19.498;2023-02-11T14:51:01;4.60;99.90
45137;DHT22;30894;51.740;19.498;2023-02-11T14:53:30;4.60;99.90
45137;DHT22;30894;51.740;19.498;2023-02-11T14:55:57;4.60;99.90
45137;DHT22;30894;51.740;19.498;2023-02-11T14:58:31;4.60;99.90
45137;DHT22;30894;51.740;19.498;2023-02-11T15:03:40;4.60;99.90
45137;DHT22;30894;51.740;19.498;2023-02-11T15:11:50;4.60;99.90
45137;DHT22;30894;51.740;19.498;2023-02-11T15:14:32;4.60;99.90
45137;DHT22;30894;51.740;19.498;2023-02-11T15:17:02;4.60;99.90
45137;DHT22;30894;51.740;19.498;2023-02-11T15:19:39;4.60;99.90
45137;DHT22;30894;51.740;19.498;2023-02-11T15:22:18;4.60;99.90
45137;DHT22;30894;51.740;19.498;2023-02-11T15:25:09;4.60;99.90
45137;DHT22;30894;51.740;19.498;2023-02-11T15:27:44;4.60;99.90
45137;DHT22;30894;51.740;19.498;2023-02-11T15:32:53;4.70;99.90
45137;DHT22;30894;51.740;19.498;2023-02-11T15:35:29;4.70;99.90
45137;DHT22;30894;51.740;19.498;2023-02-11T15:37:57;4.70;99.90
45137;DHT22;30894;51.740;19.498;2023-02-11T15:40:28;4.70;99.90
45137;DHT22;30894;51.740;19.498;2023-02-11T15:43:04;4.70;99.90
45137;DHT22;30894;51.740;19.498;2023-02-11T15:45:41;4.70;99.90
45137;DHT22;30894;51.740;19.498;2023-02-11T15:48:23;4.70;99.90
45137;DHT22;30894;51.740;19.498;2023-02-11T15:50:53;4.70;99.90
45137;DHT22;30894;51.740;19.498;2023-02-11T15:53:40;4.70;99.90
45137;DHT22;30894;51.740;19.498;2023-02-11T15:58:52;4.80;99.90
45137;DHT22;30894;51.740;19.498;2023-02-11T16:01:41;4.80;99.90
45137;DHT22;30894;51.740;19.498;2023-02-11T16:04:15;4.90;99.90
45137;DHT22;30894;51.740;19.498;2023-02-11T16:06:45;4.90;99.90
45137;DHT22;30894;51.740;19.498;2023-02-11T16:17:12;4.90;99.90
45137;DHT22;30894;51.740;19.498;2023-02-11T16:19:49;5.00;99.90
45137;DHT22;30894;51.740;19.498;2023-02-11T16:22:23;4.90;99.90
45137;DHT22;30894;51.740;19.498;2023-02-11T16:24:56;5.00;99.90
45137;DHT22;30894;51.740;19.498;2023-02-11T16:27:35;5.00;99.90
45137;DHT22;30894;51.740;19.498;2023-02-11T16:30:04;5.00;99.90
45137;DHT22;30894;51.740;19.498;2023-02-11T16:32:52;5.10;99.90
45137;DHT22;30894;51.740;19.498;2023-02-11T16:35:19;5.00;99.90
45137;DHT22;30894;51.740;19.498;2023-02-11T16:37:46;5.00;99.90
45137;DHT22;30894;51.740;19.498;2023-02-11T16:40:12;5.10;99.90
45137;DHT22;30894;51.740;19.498;2023-02-11T16:42:39;5.10;99.90
45137;DHT22;30894;51.740;19.498;2023-02-11T16:45:05;5.10;99.90
45137;DHT22;30894;51.740;19.498;2023-02-11T16:47:33;5.10;99.90
45137;DHT22;30894;51.740;19.498;2023-02-11T16:50:00;5.10;99.90
45137;DHT22;30894;51.740;19.498;2023-02-11T16:52:27;5.20;99.90
45137;DHT22;30894;51.740;19.498;2023-02-11T16:54:56;5.20;99.90
45137;DHT22;30894;51.740;19.498;2023-02-11T16:57:25;5.20;99.90
45137;DHT22;30894;51.740;19.498;2023-02-11T16:59:51;5.20;99.90
45137;DHT22;30894;51.740;19.498;2023-02-11T17:02:30;5.20;99.90
45137;DHT22;30894;51.740;19.498;2023-02-11T17:05:00;5.30;99.90
45137;DHT22;30894;51.740;19.498;2023-02-11T17:07:28;5.30;99.90
45137;DHT22;30894;51.740;19.498;2023-02-11T17:09:55;5.30;99.90
45137;DHT22;30894;51.740;19.498;2023-02-11T17:12:22;5.30;99.90
45137;DHT22;30894;51.740;19.498;2023-02-11T17:14:51;5.40;99.90
45137;DHT22;30894;51.740;19.498;2023-02-11T17:17:18;5.40;99.90
45137;DHT22;30894;51.740;19.498;2023-02-11T17:19:46;5.40;99.90
45137;DHT22;30894;51.740;19.498;2023-02-11T17:22:13;5.40;99.90
45137;DHT22;30894;51.740;19.498;2023-02-11T17:24:39;5.40;99.90
45137;DHT22;30894;51.740;19.498;2023-02-11T17:27:05;5.40;99.90
45137;DHT22;30894;51.740;19.498;2023-02-11T17:29:32;5.40;99.90
45137;DHT22;30894;51.740;19.498;2023-02-11T17:31:58;5.40;99.90
45137;DHT22;30894;51.740;19.498;2023-02-11T17:34:25;5.40;99.90
45137;DHT22;30894;51.740;19.498;2023-02-11T17:36:54;5.30;99.90
45137;DHT22;30894;51.740;19.498;2023-02-11T17:39:22;5.40;99.90
45137;DHT22;30894;51.740;19.498;2023-02-11T17:41:49;5.40;99.90
45137;DHT22;30894;51.740;19.498;2023-02-11T17:44:15;5.40;99.90
45137;DHT22;30894;51.740;19.498;2023-02-11T17:46:42;5.40;99.90
45137;DHT22;30894;51.740;19.498;2023-02-11T17:49:10;5.40;99.90
45137;DHT22;30894;51.740;19.498;2023-02-11T17:51:39;5.40;99.90
45137;DHT22;30894;51.740;19.498;2023-02-11T17:54:16;5.40;99.90
45137;DHT22;30894;51.740;19.498;2023-02-11T17:56:45;5.40;99.90
45137;DHT22;30894;51.740;19.498;2023-02-11T17:59:12;5.40;99.90
45137;DHT22;30894;51.740;19.498;2023-02-11T18:01:42;5.50;99.90
45137;DHT22;30894;51.740;19.498;2023-02-11T18:04:13;5.40;99.90
45137;DHT22;30894;51.740;19.498;2023-02-11T18:06:42;5.40;99.90
45137;DHT22;30894;51.740;19.498;2023-02-11T18:09:09;5.40;99.90
45137;DHT22;30894;51.740;19.498;2023-02-11T18:11:38;5.40;99.90
45137;DHT22;30894;51.740;19.498;2023-02-11T18:14:08;5.40;99.90
45137;DHT22;30894;51.740;19.498;2023-02-11T18:16:36;5.40;99.90
45137;DHT22;30894;51.740;19.498;2023-02-11T18:19:04;5.40;99.90
45137;DHT22;30894;51.740;19.498;2023-02-11T18:21:32;5.40;99.90
45137;DHT22;30894;51.740;19.498;2023-02-11T18:23:58;5.40;99.90
45137;DHT22;30894;51.740;19.498;2023-02-11T18:26:26;5.40;99.90
45137;DHT22;30894;51.740;19.498;2023-02-11T18:28:54;5.50;99.90
45137;DHT22;30894;51.740;19.498;2023-02-11T18:31:24;5.50;99.90
45137;DHT22;30894;51.740;19.498;2023-02-11T18:33:51;5.40;99.90
45137;DHT22;30894;51.740;19.498;2023-02-11T18:36:20;5.50;99.90
45137;DHT22;30894;51.740;19.498;2023-02-11T18:38:47;5.40;99.90
45137;DHT22;30894;51.740;19.498;2023-02-11T18:41:14;5.50;99.90
45137;DHT22;30894;51.740;19.498;2023-02-11T18:43:40;5.50;99.90
45137;DHT22;30894;51.740;19.498;2023-02-11T18:46:11;5.50;99.90
45137;DHT22;30894;51.740;19.498;2023-02-11T18:48:39;5.50;99.90
45137;DHT22;30894;51.740;19.498;2023-02-11T18:51:12;5.50;99.90
45137;DHT22;30894;51.740;19.498;2023-02-11T18:53:41;5.50;99.90